sensor_id;sensor_type;location;lat;lon;timestamp;pressure;altitude;pressure_sealevel;temperature;humidity
11329;BME280;5719;42.714;23.732;2023-05-12T00:01:17;94736.03;;;9.93;65.46
11329;BME280;5719;42.714;23.732;2023-05-12T00:03:47;94724.88;;;9.93;62.44
11329;BME280;5719;42.714;23.732;2023-05-12T00:06:14;94729.72;;;9.84;61.76
11329;BME280;5719;42.714;23.732;2023-05-12T00:08:41;94737.25;;;9.88;62.36
11329;BME280;5719;42.714;23.732;2023-05-12T00:11:08;94729.72;;;9.84;61.20
11329;BME280;5719;42.714;23.732;2023-05-12T00:13:35;94732.50;;;9.81;60.46
11329;BME280;5719;42.714;23.732;2023-05-12T00:16:03;94732.50;;;9.81;61.76
11329;BME280;5719;42.714;23.732;2023-05-12T00:18:30;94723.84;;;9.82;62.50
11329;BME280;5719;42.714;23.732;2023-05-12T00:20:58;94731.78;;;9.79;61.61
11329;BME280;5719;42.714;23.732;2023-05-12T00:23:25;94732.50;;;9.81;62.00
11329;BME280;5719;42.714;23.732;2023-05-12T00:25:52;94735.41;;;9.90;63.25
11329;BME280;5719;42.714;23.732;2023-05-12T00:28:19;94731.91;;;9.91;61.98
11329;BME280;5719;42.714;23.732;2023-05-12T00:30:46;94730.75;;;9.95;62.70
11329;BME280;5719;42.714;23.732;2023-05-12T00:33:13;94730.09;;;10.05;62.42
11329;BME280;5719;42.714;23.732;2023-05-12T00:35:41;94733.09;;;10.12;62.26
11329;BME280;5719;42.714;23.732;2023-05-12T00:38:11;94723.59;;;10.12;62.39
11329;BME280;5719;42.714;23.732;2023-05-12T00:40:39;94730.72;;;10.09;62.97
11329;BME280;5719;42.714;23.732;2023-05-12T00:43:05;94732.69;;;10.18;62.69
11329;BME280;5719;42.714;23.732;2023-05-12T00:45:33;94731.56;;;10.22;61.80
11329;BME280;5719;42.714;23.732;2023-05-12T00:48:00;94734.25;;;10.20;61.59
11329;BME280;5719;42.714;23.732;2023-05-12T00:50:28;94737.88;;;10.18;62.51
11329;BME280;5719;42.714;23.732;2023-05-12T00:52:55;94737.97;;;10.16;62.74
11329;BME280;5719;42.714;23.732;2023-05-12T00:55:24;94736.03;;;10.20;63.08
11329;BME280;5719;42.714;23.732;2023-05-12T00:57:51;94740.53;;;10.16;63.41
11329;BME280;5719;42.714;23.732;2023-05-12T01:00:18;94737.22;;;10.02;64.34
11329;BME280;5719;42.714;23.732;2023-05-12T01:02:46;94740.78;;;9.87;65.17
11329;BME280;5719;42.714;23.732;2023-05-12T01:05:13;94735.72;;;9.58;65.23
11329;BME280;5719;42.714;23.732;2023-05-12T01:07:41;94737.19;;;9.35;67.35
11329;BME280;5719;42.714;23.732;2023-05-12T01:10:16;94738.53;;;9.41;68.59
11329;BME280;5719;42.714;23.732;2023-05-12T01:12:45;94735.34;;;9.38;68.07
11329;BME280;5719;42.714;23.732;2023-05-12T01:15:12;94728.34;;;9.40;68.43
11329;BME280;5719;42.714;23.732;2023-05-12T01:17:43;94729.13;;;9.40;69.15
11329;BME280;5719;42.714;23.732;2023-05-12T01:20:12;94735.69;;;9.46;69.20
11329;BME280;5719;42.714;23.732;2023-05-12T01:22:41;94735.69;;;9.46;69.20
11329;BME280;5719;42.714;23.732;2023-05-12T01:25:10;94734.69;;;9.34;69.79
11329;BME280;5719;42.714;23.732;2023-05-12T01:27:39;94733.16;;;9.31;69.99
11329;BME280;5719;42.714;23.732;2023-05-12T01:30:08;94732.31;;;9.31;70.27
11329;BME280;5719;42.714;23.732;2023-05-12T01:32:37;94741.53;;;9.35;69.18
11329;BME280;5719;42.714;23.732;2023-05-12T01:35:05;94729.09;;;9.27;68.35
11329;BME280;5719;42.714;23.732;2023-05-12T01:37:32;94738.59;;;9.27;68.63
11329;BME280;5719;42.714;23.732;2023-05-12T01:39:59;94734.63;;;9.35;69.50
11329;BME280;5719;42.714;23.732;2023-05-12T01:42:26;94731.91;;;9.37;69.11
11329;BME280;5719;42.714;23.732;2023-05-12T01:44:55;94732.56;;;9.41;69.08
11329;BME280;5719;42.714;23.732;2023-05-12T01:47:22;94735.91;;;9.55;69.66
11329;BME280;5719;42.714;23.732;2023-05-12T01:49:48;94737.72;;;9.67;69.39
11329;BME280;5719;42.714;23.732;2023-05-12T01:52:15;94737.31;;;9.73;68.88
11329;BME280;5719;42.714;23.732;2023-05-12T01:54:42;94747.00;;;9.70;70.10
11329;BME280;5719;42.714;23.732;2023-05-12T01:57:09;94734.53;;;9.76;70.59
11329;BME280;5719;42.714;23.732;2023-05-12T01:59:36;94737.03;;;9.78;70.25
11329;BME280;5719;42.714;23.732;2023-05-12T02:02:04;94736.59;;;9.71;70.85
11329;BME280;5719;42.714;23.732;2023-05-12T02:04:31;94730.81;;;9.68;72.98
11329;BME280;5719;42.714;23.732;2023-05-12T02:06:58;94739.25;;;9.57;73.49
11329;BME280;5719;42.714;23.732;2023-05-12T02:09:26;94735.19;;;9.53;74.43
11329;BME280;5719;42.714;23.732;2023-05-12T02:11:53;94727.47;;;9.53;75.90
11329;BME280;5719;42.714;23.732;2023-05-12T02:14:20;94728.81;;;9.59;77.32
11329;BME280;5719;42.714;23.732;2023-05-12T02:16:46;94732.81;;;9.50;77.48
11329;BME280;5719;42.714;23.732;2023-05-12T02:19:18;94730.31;;;9.22;78.13
11329;BME280;5719;42.714;23.732;2023-05-12T02:21:45;94734.19;;;9.15;80.20
11329;BME280;5719;42.714;23.732;2023-05-12T02:24:12;94737.34;;;9.06;82.93
11329;BME280;5719;42.714;23.732;2023-05-12T02:26:40;94738.25;;;9.05;84.06
11329;BME280;5719;42.714;23.732;2023-05-12T02:29:07;94738.06;;;9.08;86.61
11329;BME280;5719;42.714;23.732;2023-05-12T02:31:35;94735.97;;;9.14;86.65
11329;BME280;5719;42.714;23.732;2023-05-12T02:34:01;94738.63;;;9.13;86.14
11329;BME280;5719;42.714;23.732;2023-05-12T02:36:30;94736.69;;;9.16;88.03
11329;BME280;5719;42.714;23.732;2023-05-12T02:38:57;94730.06;;;9.12;88.82
11329;BME280;5719;42.714;23.732;2023-05-12T02:41:24;94729.97;;;9.14;88.36
11329;BME280;5719;42.714;23.732;2023-05-12T02:43:51;94739.91;;;9.20;89.69
11329;BME280;5719;42.714;23.732;2023-05-12T02:46:18;94737.88;;;9.25;90.69
11329;BME280;5719;42.714;23.732;2023-05-12T02:48:44;94735.19;;;9.26;90.91
11329;BME280;5719;42.714;23.732;2023-05-12T02:51:11;94737.69;;;9.28;91.14
11329;BME280;5719;42.714;23.732;2023-05-12T02:53:39;94735.53;;;9.34;91.80
11329;BME280;5719;42.714;23.732;2023-05-12T02:56:06;94735.25;;;9.39;91.91
11329;BME280;5719;42.714;23.732;2023-05-12T02:58:33;94725.13;;;9.36;91.23
11329;BME280;5719;42.714;23.732;2023-05-12T03:01:00;94722.56;;;9.36;92.16
11329;BME280;5719;42.714;23.732;2023-05-12T03:03:27;94733.94;;;9.46;92.22
11329;BME280;5719;42.714;23.732;2023-05-12T03:05:54;94733.72;;;9.49;92.64
11329;BME280;5719;42.714;23.732;2023-05-12T03:08:21;94731.16;;;9.49;93.20
11329;BME280;5719;42.714;23.732;2023-05-12T03:10:49;94732.75;;;9.38;93.83
11329;BME280;5719;42.714;23.732;2023-05-12T03:13:16;94728.50;;;9.36;92.33
11329;BME280;5719;42.714;23.732;2023-05-12T03:15:43;94723.66;;;9.32;94.17
11329;BME280;5719;42.714;23.732;2023-05-12T03:18:10;94723.47;;;9.35;94.22
11329;BME280;5719;42.714;23.732;2023-05-12T03:20:37;94735.28;;;9.25;95.33
11329;BME280;5719;42.714;23.732;2023-05-12T03:23:04;94735.09;;;9.28;96.41
11329;BME280;5719;42.714;23.732;2023-05-12T03:25:30;94743.34;;;9.33;95.96
11329;BME280;5719;42.714;23.732;2023-05-12T03:28:00;94745.13;;;9.32;96.69
11329;BME280;5719;42.714;23.732;2023-05-12T03:30:28;94740.78;;;9.33;96.06
11329;BME280;5719;42.714;23.732;2023-05-12T03:32:54;94749.53;;;9.30;95.02
11329;BME280;5719;42.714;23.732;2023-05-12T03:35:21;94750.09;;;9.35;95.21
11329;BME280;5719;42.714;23.732;2023-05-12T03:37:48;94748.88;;;9.41;94.88
11329;BME280;5719;42.714;23.732;2023-05-12T03:40:15;94754.63;;;9.32;94.85
11329;BME280;5719;42.714;23.732;2023-05-12T03:42:43;94760.09;;;9.40;95.37
11329;BME280;5719;42.714;23.732;2023-05-12T03:45:12;94754.03;;;9.41;95.20
11329;BME280;5719;42.714;23.732;2023-05-12T03:47:38;94755.88;;;9.39;97.78
11329;BME280;5719;42.714;23.732;2023-05-12T03:50:06;94757.03;;;9.21;100.00
11329;BME280;5719;42.714;23.732;2023-05-12T03:52:33;94762.00;;;9.24;100.00
11329;BME280;5719;42.714;23.732;2023-05-12T03:55:03;94760.97;;;9.26;100.00
11329;BME280;5719;42.714;23.732;2023-05-12T03:57:30;94765.09;;;9.29;100.00
11329;BME280;5719;42.714;23.732;2023-05-12T03:59:57;94770.25;;;9.29;99.84
11329;BME280;5719;42.714;23.732;2023-05-12T04:02:25;94771.72;;;9.33;100.00
11329;BME280;5719;42.714;23.732;2023-05-12T04:04:52;94772.31;;;9.24;100.00
11329;BME280;5719;42.714;23.732;2023-05-12T04:07:19;94761.84;;;9.13;100.00
11329;BME280;5719;42.714;23.732;2023-05-12T04:09:46;94768.94;;;8.95;100.00
11329;BME280;5719;42.714;23.732;2023-05-12T04:12:12;94779.16;;;8.82;100.00
11329;BME280;5719;42.714;23.732;2023-05-12T04:14:39;94782.31;;;8.59;100.00
11329;BME280;5719;42.714;23.732;2023-05-12T04:17:06;94786.38;;;8.63;100.00
11329;BME280;5719;42.714;23.732;2023-05-12T04:19:34;94780.09;;;8.81;100.00
11329;BME280;5719;42.714;23.732;2023-05-12T04:22:01;94783.41;;;8.98;100.00
11329;BME280;5719;42.714;23.732;2023-05-12T04:24:28;94781.19;;;9.06;100.00
11329;BME280;5719;42.714;23.732;2023-05-12T04:26:56;94780.56;;;9.02;100.00
11329;BME280;5719;42.714;23.732;2023-05-12T04:29:23;94788.94;;;8.92;100.00
11329;BME280;5719;42.714;23.732;2023-05-12T04:31:50;94787.34;;;8.61;100.00
11329;BME280;5719;42.714;23.732;2023-05-12T04:34:17;94787.06;;;8.37;100.00
11329;BME280;5719;42.714;23.732;2023-05-12T04:36:45;94778.31;;;8.40;100.00
11329;BME280;5719;42.714;23.732;2023-05-12T04:39:12;94777.94;;;8.31;100.00
11329;BME280;5719;42.714;23.732;2023-05-12T04:41:39;94780.81;;;8.41;100.00
11329;BME280;5719;42.714;23.732;2023-05-12T04:44:06;94776.41;;;8.57;100.00
11329;BME280;5719;42.714;23.732;2023-05-12T04:46:33;94778.78;;;8.60;100.00
11329;BME280;5719;42.714;23.732;2023-05-12T04:49:00;94771.34;;;8.70;100.00
11329;BME280;5719;42.714;23.732;2023-05-12T04:51:27;94769.41;;;8.88;100.00
11329;BME280;5719;42.714;23.732;2023-05-12T04:53:55;94771.06;;;8.74;100.00
11329;BME280;5719;42.714;23.732;2023-05-12T04:56:22;94762.34;;;8.77;100.00
11329;BME280;5719;42.714;23.732;2023-05-12T04:58:49;94764.44;;;8.84;100.00
11329;BME280;5719;42.714;23.732;2023-05-12T05:01:16;94775.59;;;8.85;100.00
11329;BME280;5719;42.714;23.732;2023-05-12T05:03:43;94762.97;;;8.80;100.00
11329;BME280;5719;42.714;23.732;2023-05-12T05:06:10;94765.53;;;8.95;100.00
11329;BME280;5719;42.714;23.732;2023-05-12T05:08:37;94767.72;;;9.15;100.00
11329;BME280;5719;42.714;23.732;2023-05-12T05:11:05;94766.25;;;9.25;100.00
11329;BME280;5719;42.714;23.732;2023-05-12T05:13:32;94764.09;;;9.31;100.00
11329;BME280;5719;42.714;23.732;2023-05-12T05:15:59;94763.50;;;9.41;100.00
11329;BME280;5719;42.714;23.732;2023-05-12T05:18:26;94772.84;;;9.43;100.00
11329;BME280;5719;42.714;23.732;2023-05-12T05:20:53;94775.94;;;9.48;100.00
11329;BME280;5719;42.714;23.732;2023-05-12T05:23:20;94772.69;;;9.59;100.00
11329;BME280;5719;42.714;23.732;2023-05-12T05:25:47;94774.91;;;9.65;100.00
11329;BME280;5719;42.714;23.732;2023-05-12T05:28:16;94776.72;;;9.63;99.30
11329;BME280;5719;42.714;23.732;2023-05-12T05:30:43;94780.38;;;9.73;98.11
11329;BME280;5719;42.714;23.732;2023-05-12T05:33:09;94775.47;;;9.82;99.75
11329;BME280;5719;42.714;23.732;2023-05-12T05:35:37;94778.19;;;9.94;98.08
11329;BME280;5719;42.714;23.732;2023-05-12T05:38:04;94777.56;;;10.03;98.02
11329;BME280;5719;42.714;23.732;2023-05-12T05:40:31;94783.09;;;10.11;94.60
11329;BME280;5719;42.714;23.732;2023-05-12T05:42:58;94782.63;;;10.18;95.08
11329;BME280;5719;42.714;23.732;2023-05-12T05:45:26;94781.16;;;10.14;95.01
11329;BME280;5719;42.714;23.732;2023-05-12T05:47:54;94786.94;;;10.18;94.43
11329;BME280;5719;42.714;23.732;2023-05-12T05:50:20;94782.38;;;10.09;95.18
11329;BME280;5719;42.714;23.732;2023-05-12T05:52:47;94787.16;;;10.15;94.54
11329;BME280;5719;42.714;23.732;2023-05-12T05:55:14;94791.66;;;10.11;94.36
11329;BME280;5719;42.714;23.732;2023-05-12T05:57:41;94798.44;;;10.00;93.28
11329;BME280;5719;42.714;23.732;2023-05-12T06:00:09;94795.84;;;9.87;94.35
11329;BME280;5719;42.714;23.732;2023-05-12T06:02:40;94795.94;;;9.85;93.88
11329;BME280;5719;42.714;23.732;2023-05-12T06:05:08;94791.09;;;9.94;92.70
11329;BME280;5719;42.714;23.732;2023-05-12T06:07:36;94796.00;;;10.11;92.24
11329;BME280;5719;42.714;23.732;2023-05-12T06:10:04;94799.56;;;10.22;89.90
11329;BME280;5719;42.714;23.732;2023-05-12T06:12:31;94800.19;;;10.26;90.58
11329;BME280;5719;42.714;23.732;2023-05-12T06:14:58;94798.75;;;10.22;91.68
11329;BME280;5719;42.714;23.732;2023-05-12T06:17:25;94792.50;;;10.12;91.36
11329;BME280;5719;42.714;23.732;2023-05-12T06:19:54;94793.06;;;10.03;90.81
11329;BME280;5719;42.714;23.732;2023-05-12T06:22:21;94801.41;;;10.20;91.03
11329;BME280;5719;42.714;23.732;2023-05-12T06:24:49;94793.69;;;10.33;90.54
11329;BME280;5719;42.714;23.732;2023-05-12T06:27:16;94798.88;;;10.46;88.20
11329;BME280;5719;42.714;23.732;2023-05-12T06:29:43;94795.69;;;10.55;87.28
11329;BME280;5719;42.714;23.732;2023-05-12T06:32:10;94791.97;;;10.59;89.31
11329;BME280;5719;42.714;23.732;2023-05-12T06:34:37;94799.81;;;10.57;91.01
11329;BME280;5719;42.714;23.732;2023-05-12T06:37:05;94800.44;;;10.61;89.09
11329;BME280;5719;42.714;23.732;2023-05-12T06:39:32;94800.44;;;10.61;88.88
11329;BME280;5719;42.714;23.732;2023-05-12T06:42:00;94790.00;;;10.75;86.30
11329;BME280;5719;42.714;23.732;2023-05-12T06:44:27;94806.38;;;10.88;86.02
11329;BME280;5719;42.714;23.732;2023-05-12T06:46:54;94805.84;;;10.96;86.81
11329;BME280;5719;42.714;23.732;2023-05-12T06:49:21;94802.31;;;10.97;87.17
11329;BME280;5719;42.714;23.732;2023-05-12T06:51:48;94800.53;;;11.10;86.32
11329;BME280;5719;42.714;23.732;2023-05-12T06:54:17;94799.06;;;11.18;83.76
11329;BME280;5719;42.714;23.732;2023-05-12T06:56:44;94797.63;;;11.27;84.30
11329;BME280;5719;42.714;23.732;2023-05-12T06:59:10;94799.06;;;11.31;82.51
11329;BME280;5719;42.714;23.732;2023-05-12T07:01:38;94801.44;;;11.34;80.46
11329;BME280;5719;42.714;23.732;2023-05-12T07:04:05;94801.13;;;11.39;81.16
11329;BME280;5719;42.714;23.732;2023-05-12T07:06:32;94794.50;;;11.35;79.00
11329;BME280;5719;42.714;23.732;2023-05-12T07:08:59;94806.19;;;11.40;77.77
11329;BME280;5719;42.714;23.732;2023-05-12T07:11:28;94796.03;;;11.37;79.09
11329;BME280;5719;42.714;23.732;2023-05-12T07:13:55;94798.91;;;11.45;80.33
11329;BME280;5719;42.714;23.732;2023-05-12T07:16:22;94799.59;;;11.60;80.99
11329;BME280;5719;42.714;23.732;2023-05-12T07:18:49;94805.72;;;11.71;79.42
11329;BME280;5719;42.714;23.732;2023-05-12T07:21:16;94796.06;;;11.73;79.57
11329;BME280;5719;42.714;23.732;2023-05-12T07:23:43;94803.81;;;11.73;76.13
11329;BME280;5719;42.714;23.732;2023-05-12T07:26:10;94800.22;;;11.76;75.98
11329;BME280;5719;42.714;23.732;2023-05-12T07:28:39;94800.91;;;11.78;75.67
11329;BME280;5719;42.714;23.732;2023-05-12T07:31:07;94802.69;;;11.77;76.80
11329;BME280;5719;42.714;23.732;2023-05-12T07:33:35;94793.06;;;11.79;74.92
11329;BME280;5719;42.714;23.732;2023-05-12T07:36:04;94793.66;;;11.83;74.22
11329;BME280;5719;42.714;23.732;2023-05-12T07:38:33;94798.94;;;11.82;77.19
11329;BME280;5719;42.714;23.732;2023-05-12T07:41:00;94791.16;;;11.82;77.01
11329;BME280;5719;42.714;23.732;2023-05-12T07:43:28;94805.91;;;11.68;73.12
11329;BME280;5719;42.714;23.732;2023-05-12T07:45:56;94797.75;;;11.25;78.36
11329;BME280;5719;42.714;23.732;2023-05-12T07:48:25;94796.69;;;11.28;77.08
11329;BME280;5719;42.714;23.732;2023-05-12T07:50:52;94774.94;;;11.30;79.17
11329;BME280;5719;42.714;23.732;2023-05-12T07:53:19;94792.69;;;11.48;78.98
11329;BME280;5719;42.714;23.732;2023-05-12T07:55:46;94791.97;;;11.46;77.69
11329;BME280;5719;42.714;23.732;2023-05-12T07:58:13;94791.84;;;11.60;74.80
11329;BME280;5719;42.714;23.732;2023-05-12T08:00:40;94793.38;;;11.62;74.33
11329;BME280;5719;42.714;23.732;2023-05-12T08:03:08;94789.50;;;11.44;75.16
11329;BME280;5719;42.714;23.732;2023-05-12T08:05:35;94797.47;;;11.41;75.70
11329;BME280;5719;42.714;23.732;2023-05-12T08:08:02;94800.81;;;11.43;76.27
11329;BME280;5719;42.714;23.732;2023-05-12T08:10:29;94806.03;;;11.05;82.11
11329;BME280;5719;42.714;23.732;2023-05-12T08:12:57;94805.94;;;11.07;82.22
11329;BME280;5719;42.714;23.732;2023-05-12T08:15:24;94805.00;;;10.82;85.56
11329;BME280;5719;42.714;23.732;2023-05-12T08:17:51;94813.09;;;10.78;85.25
11329;BME280;5719;42.714;23.732;2023-05-12T08:20:19;94812.97;;;10.67;84.57
11329;BME280;5719;42.714;23.732;2023-05-12T08:22:46;94814.13;;;10.63;84.92
11329;BME280;5719;42.714;23.732;2023-05-12T08:25:15;94813.16;;;10.51;86.37
11329;BME280;5719;42.714;23.732;2023-05-12T08:27:42;94803.94;;;10.47;86.22
11329;BME280;5719;42.714;23.732;2023-05-12T08:30:10;94806.56;;;10.72;85.44
11329;BME280;5719;42.714;23.732;2023-05-12T08:32:37;94809.16;;;10.72;82.92
11329;BME280;5719;42.714;23.732;2023-05-12T08:35:05;94804.41;;;10.92;82.92
11329;BME280;5719;42.714;23.732;2023-05-12T08:37:33;94805.09;;;10.94;81.69
11329;BME280;5719;42.714;23.732;2023-05-12T08:40:01;94803.66;;;10.77;82.96
11329;BME280;5719;42.714;23.732;2023-05-12T08:42:34;94800.06;;;10.67;81.79
11329;BME280;5719;42.714;23.732;2023-05-12T08:45:03;94806.66;;;10.83;84.73
11329;BME280;5719;42.714;23.732;2023-05-12T08:47:32;94797.00;;;11.23;81.16
11329;BME280;5719;42.714;23.732;2023-05-12T08:50:00;94803.09;;;11.35;80.56
11329;BME280;5719;42.714;23.732;2023-05-12T08:52:29;94798.22;;;11.67;80.83
11329;BME280;5719;42.714;23.732;2023-05-12T08:54:59;94797.19;;;11.82;77.84
11329;BME280;5719;42.714;23.732;2023-05-12T08:57:26;94802.97;;;11.86;78.62
11329;BME280;5719;42.714;23.732;2023-05-12T08:59:54;94811.22;;;11.54;76.62
11329;BME280;5719;42.714;23.732;2023-05-12T09:02:23;94798.09;;;11.45;77.99
11329;BME280;5719;42.714;23.732;2023-05-12T09:04:50;94802.09;;;11.61;78.87
11329;BME280;5719;42.714;23.732;2023-05-12T09:07:18;94796.78;;;11.63;76.49
11329;BME280;5719;42.714;23.732;2023-05-12T09:09:47;94800.06;;;11.90;77.53
11329;BME280;5719;42.714;23.732;2023-05-12T09:12:17;94787.38;;;12.33;75.00
11329;BME280;5719;42.714;23.732;2023-05-12T09:14:47;94786.63;;;12.20;71.85
11329;BME280;5719;42.714;23.732;2023-05-12T09:17:18;94787.94;;;12.25;72.98
11329;BME280;5719;42.714;23.732;2023-05-12T09:19:45;94788.88;;;12.24;71.69
11329;BME280;5719;42.714;23.732;2023-05-12T09:22:12;94780.69;;;12.42;70.67
11329;BME280;5719;42.714;23.732;2023-05-12T09:24:41;94785.72;;;12.67;68.57
11329;BME280;5719;42.714;23.732;2023-05-12T09:27:08;94773.00;;;12.97;67.05
11329;BME280;5719;42.714;23.732;2023-05-12T09:29:46;94764.31;;;13.20;64.86
11329;BME280;5719;42.714;23.732;2023-05-12T09:32:14;94755.63;;;13.64;68.31
11329;BME280;5719;42.714;23.732;2023-05-12T09:34:42;94757.47;;;13.73;61.82
11329;BME280;5719;42.714;23.732;2023-05-12T09:37:09;94757.75;;;13.59;65.68
11329;BME280;5719;42.714;23.732;2023-05-12T09:39:37;94758.56;;;13.60;65.28
11329;BME280;5719;42.714;23.732;2023-05-12T09:42:09;94759.09;;;13.86;65.28
11329;BME280;5719;42.714;23.732;2023-05-12T09:44:38;94757.50;;;14.05;63.37
11329;BME280;5719;42.714;23.732;2023-05-12T09:47:06;94769.63;;;13.84;64.29
11329;BME280;5719;42.714;23.732;2023-05-12T09:49:34;94759.25;;;14.16;65.03
11329;BME280;5719;42.714;23.732;2023-05-12T09:52:03;94768.06;;;13.93;62.17
11329;BME280;5719;42.714;23.732;2023-05-12T09:54:31;94766.91;;;13.86;63.87
11329;BME280;5719;42.714;23.732;2023-05-12T09:57:00;94760.97;;;14.27;62.96
11329;BME280;5719;42.714;23.732;2023-05-12T09:59:29;94764.88;;;14.73;59.68
11329;BME280;5719;42.714;23.732;2023-05-12T10:01:59;94761.50;;;15.13;60.61
11329;BME280;5719;42.714;23.732;2023-05-12T10:04:29;94757.09;;;15.04;58.46
11329;BME280;5719;42.714;23.732;2023-05-12T10:06:58;94761.75;;;15.40;58.39
11329;BME280;5719;42.714;23.732;2023-05-12T10:09:29;94763.69;;;15.97;58.03
11329;BME280;5719;42.714;23.732;2023-05-12T10:11:58;94757.50;;;16.17;52.86
11329;BME280;5719;42.714;23.732;2023-05-12T10:14:25;94752.16;;;16.48;54.27
11329;BME280;5719;42.714;23.732;2023-05-12T10:16:53;94751.63;;;16.63;57.78
11329;BME280;5719;42.714;23.732;2023-05-12T10:19:21;94745.22;;;16.95;52.51
11329;BME280;5719;42.714;23.732;2023-05-12T10:21:51;94752.59;;;16.34;53.09
11329;BME280;5719;42.714;23.732;2023-05-12T10:24:19;94753.56;;;16.23;54.90
11329;BME280;5719;42.714;23.732;2023-05-12T10:26:46;94746.66;;;15.93;56.86
11329;BME280;5719;42.714;23.732;2023-05-12T10:29:14;94742.69;;;16.18;56.17
11329;BME280;5719;42.714;23.732;2023-05-12T10:31:43;94747.25;;;16.35;54.63
11329;BME280;5719;42.714;23.732;2023-05-12T10:34:15;94747.50;;;16.42;56.34
11329;BME280;5719;42.714;23.732;2023-05-12T10:36:47;94743.84;;;16.91;55.30
11329;BME280;5719;42.714;23.732;2023-05-12T10:39:15;94748.44;;;16.70;53.46
11329;BME280;5719;42.714;23.732;2023-05-12T10:41:42;94746.69;;;16.41;54.93
11329;BME280;5719;42.714;23.732;2023-05-12T10:44:09;94748.72;;;16.66;51.63
11329;BME280;5719;42.714;23.732;2023-05-12T10:46:36;94739.44;;;17.01;52.80
11329;BME280;5719;42.714;23.732;2023-05-12T10:49:06;94741.78;;;16.94;52.63
11329;BME280;5719;42.714;23.732;2023-05-12T10:51:44;94732.22;;;17.22;55.22
11329;BME280;5719;42.714;23.732;2023-05-12T10:54:19;94739.59;;;17.36;50.98
11329;BME280;5719;42.714;23.732;2023-05-12T10:56:46;94736.78;;;17.10;52.29
11329;BME280;5719;42.714;23.732;2023-05-12T10:59:14;94737.75;;;17.19;52.24
11329;BME280;5719;42.714;23.732;2023-05-12T11:01:55;94727.47;;;17.35;50.61
11329;BME280;5719;42.714;23.732;2023-05-12T11:04:33;94729.16;;;17.54;51.55
11329;BME280;5719;42.714;23.732;2023-05-12T11:07:03;94739.16;;;16.94;50.27
11329;BME280;5719;42.714;23.732;2023-05-12T11:09:34;94743.94;;;16.62;51.83
11329;BME280;5719;42.714;23.732;2023-05-12T11:12:01;94738.38;;;16.94;50.35
11329;BME280;5719;42.714;23.732;2023-05-12T11:14:28;94731.81;;;17.17;48.74
11329;BME280;5719;42.714;23.732;2023-05-12T11:16:55;94732.94;;;17.42;48.61
11329;BME280;5719;42.714;23.732;2023-05-12T11:19:22;94728.41;;;17.71;46.50
11329;BME280;5719;42.714;23.732;2023-05-12T11:21:49;94729.44;;;17.60;47.98
11329;BME280;5719;42.714;23.732;2023-05-12T11:24:16;94732.78;;;17.98;46.41
11329;BME280;5719;42.714;23.732;2023-05-12T11:26:44;94727.31;;;17.91;46.45
11329;BME280;5719;42.714;23.732;2023-05-12T11:29:14;94730.44;;;17.59;46.72
11329;BME280;5719;42.714;23.732;2023-05-12T11:31:46;94732.03;;;17.60;47.78
11329;BME280;5719;42.714;23.732;2023-05-12T11:34:13;94744.28;;;17.87;45.13
11329;BME280;5719;42.714;23.732;2023-05-12T11:36:42;94736.19;;;17.53;45.25
11329;BME280;5719;42.714;23.732;2023-05-12T11:39:14;94740.19;;;17.57;47.25
11329;BME280;5719;42.714;23.732;2023-05-12T11:41:41;94744.34;;;17.78;46.45
11329;BME280;5719;42.714;23.732;2023-05-12T11:44:18;94745.28;;;18.39;43.61
11329;BME280;5719;42.714;23.732;2023-05-12T11:46:55;94757.31;;;18.14;45.84
11329;BME280;5719;42.714;23.732;2023-05-12T11:49:22;94747.81;;;18.13;43.67
11329;BME280;5719;42.714;23.732;2023-05-12T11:51:51;94747.09;;;18.21;44.00
11329;BME280;5719;42.714;23.732;2023-05-12T11:54:18;94748.41;;;18.25;44.67
11329;BME280;5719;42.714;23.732;2023-05-12T11:56:48;94756.72;;;18.21;44.46
11329;BME280;5719;42.714;23.732;2023-05-12T11:59:28;94747.31;;;18.28;43.01
11329;BME280;5719;42.714;23.732;2023-05-12T12:01:55;94746.81;;;17.97;45.27
11329;BME280;5719;42.714;23.732;2023-05-12T12:04:33;94738.53;;;17.84;44.29
11329;BME280;5719;42.714;23.732;2023-05-12T12:07:00;94732.69;;;17.90;43.83
11329;BME280;5719;42.714;23.732;2023-05-12T12:09:32;94744.34;;;17.78;45.55
11329;BME280;5719;42.714;23.732;2023-05-12T12:11:59;94743.78;;;18.19;45.01
11329;BME280;5719;42.714;23.732;2023-05-12T12:14:29;94749.09;;;18.09;45.14
11329;BME280;5719;42.714;23.732;2023-05-12T12:16:56;94741.81;;;18.03;44.16
11329;BME280;5719;42.714;23.732;2023-05-12T12:19:23;94740.03;;;18.04;43.08
11329;BME280;5719;42.714;23.732;2023-05-12T12:21:50;94743.63;;;18.03;44.24
11329;BME280;5719;42.714;23.732;2023-05-12T12:24:17;94743.34;;;18.24;46.33
11329;BME280;5719;42.714;23.732;2023-05-12T12:26:44;94743.72;;;18.29;44.93
11329;BME280;5719;42.714;23.732;2023-05-12T12:29:11;94743.03;;;18.09;45.42
11329;BME280;5719;42.714;23.732;2023-05-12T12:31:40;94720.19;;;17.66;45.12
11329;BME280;5719;42.714;23.732;2023-05-12T12:34:07;94739.88;;;17.88;45.19
11329;BME280;5719;42.714;23.732;2023-05-12T12:36:35;94743.16;;;17.90;43.98
11329;BME280;5719;42.714;23.732;2023-05-12T12:39:05;94744.28;;;17.87;44.47
11329;BME280;5719;42.714;23.732;2023-05-12T12:41:32;94737.44;;;17.59;45.85
11329;BME280;5719;42.714;23.732;2023-05-12T12:43:59;94737.41;;;17.86;43.75
11329;BME280;5719;42.714;23.732;2023-05-12T12:46:26;94742.91;;;17.66;45.85
11329;BME280;5719;42.714;23.732;2023-05-12T12:48:55;94737.78;;;17.74;43.97
11329;BME280;5719;42.714;23.732;2023-05-12T12:51:22;94749.84;;;17.75;43.81
11329;BME280;5719;42.714;23.732;2023-05-12T12:53:50;94738.28;;;17.59;45.15
11329;BME280;5719;42.714;23.732;2023-05-12T12:56:17;94744.41;;;17.68;45.56
11329;BME280;5719;42.714;23.732;2023-05-12T12:58:44;94744.56;;;17.67;44.62
11329;BME280;5719;42.714;23.732;2023-05-12T13:01:11;94748.59;;;17.51;45.34
11329;BME280;5719;42.714;23.732;2023-05-12T13:03:38;94748.19;;;17.09;45.60
11329;BME280;5719;42.714;23.732;2023-05-12T13:06:06;94743.44;;;17.32;44.40